sensor_id;sensor_type;location;lat;lon;timestamp;P1;durP1;ratioP1;P2;durP2;ratioP2
49610;SDS011;35515;48.766;9.176;2022-12-11T00:02:10;23.70;;;14.85;;
49610;SDS011;35515;48.766;9.176;2022-12-11T00:04:37;25.70;;;16.10;;
49610;SDS011;35515;48.766;9.176;2022-12-11T00:07:03;24.40;;;15.35;;
49610;SDS011;35515;48.766;9.176;2022-12-11T00:09:30;21.45;;;14.73;;
49610;SDS011;35515;48.766;9.176;2022-12-11T00:11:58;21.67;;;13.65;;
49610;SDS011;35515;48.766;9.176;2022-12-11T00:14:26;22.95;;;15.02;;
49610;SDS011;35515;48.766;9.176;2022-12-11T00:16:53;22.27;;;14.55;;
49610;SDS011;35515;48.766;9.176;2022-12-11T00:19:19;22.60;;;15.25;;
49610;SDS011;35515;48.766;9.176;2022-12-11T00:21:46;22.65;;;15.43;;
49610;SDS011;35515;48.766;9.176;2022-12-11T00:24:12;25.85;;;16.55;;
49610;SDS011;35515;48.766;9.176;2022-12-11T00:26:39;24.00;;;15.82;;
49610;SDS011;35515;48.766;9.176;2022-12-11T00:29:08;25.05;;;16.33;;
49610;SDS011;35515;48.766;9.176;2022-12-11T00:31:38;25.15;;;16.00;;
49610;SDS011;35515;48.766;9.176;2022-12-11T00:34:05;23.92;;;15.48;;
49610;SDS011;35515;48.766;9.176;2022-12-11T00:36:31;20.73;;;15.00;;
49610;SDS011;35515;48.766;9.176;2022-12-11T00:38:58;23.65;;;16.45;;
49610;SDS011;35515;48.766;9.176;2022-12-11T00:41:27;24.08;;;16.48;;
49610;SDS011;35515;48.766;9.176;2022-12-11T00:43:54;25.45;;;16.05;;
49610;SDS011;35515;48.766;9.176;2022-12-11T00:46:22;23.35;;;15.27;;
49610;SDS011;35515;48.766;9.176;2022-12-11T00:48:48;26.42;;;16.58;;
49610;SDS011;35515;48.766;9.176;2022-12-11T00:51:15;25.08;;;16.38;;
49610;SDS011;35515;48.766;9.176;2022-12-11T00:53:42;26.10;;;17.63;;
49610;SDS011;35515;48.766;9.176;2022-12-11T00:56:09;23.30;;;16.35;;
49610;SDS011;35515;48.766;9.176;2022-12-11T00:58:37;23.27;;;15.73;;
49610;SDS011;35515;48.766;9.176;2022-12-11T01:01:04;26.35;;;16.33;;
49610;SDS011;35515;48.766;9.176;2022-12-11T01:03:33;25.25;;;17.15;;
49610;SDS011;35515;48.766;9.176;2022-12-11T01:06:00;24.42;;;16.02;;
49610;SDS011;35515;48.766;9.176;2022-12-11T01:08:27;25.73;;;16.30;;
49610;SDS011;35515;48.766;9.176;2022-12-11T01:10:59;24.25;;;15.85;;
49610;SDS011;35515;48.766;9.176;2022-12-11T01:13:26;24.40;;;16.70;;
49610;SDS011;35515;48.766;9.176;2022-12-11T01:15:52;24.73;;;15.70;;
49610;SDS011;35515;48.766;9.176;2022-12-11T01:18:19;24.70;;;17.02;;
49610;SDS011;35515;48.766;9.176;2022-12-11T01:20:47;26.30;;;17.15;;
49610;SDS011;35515;48.766;9.176;2022-12-11T01:23:13;25.77;;;16.88;;
49610;SDS011;35515;48.766;9.176;2022-12-11T01:25:40;28.73;;;17.52;;
49610;SDS011;35515;48.766;9.176;2022-12-11T01:28:07;25.15;;;16.92;;
49610;SDS011;35515;48.766;9.176;2022-12-11T01:30:34;25.45;;;16.45;;
49610;SDS011;35515;48.766;9.176;2022-12-11T01:33:01;23.40;;;16.38;;
49610;SDS011;35515;48.766;9.176;2022-12-11T01:35:28;24.27;;;16.35;;
49610;SDS011;35515;48.766;9.176;2022-12-11T01:37:56;25.60;;;16.25;;
49610;SDS011;35515;48.766;9.176;2022-12-11T01:40:23;22.80;;;15.15;;
49610;SDS011;35515;48.766;9.176;2022-12-11T01:42:50;25.13;;;17.05;;
49610;SDS011;35515;48.766;9.176;2022-12-11T01:45:37;25.42;;;16.13;;
49610;SDS011;35515;48.766;9.176;2022-12-11T01:48:05;25.15;;;15.73;;
49610;SDS011;35515;48.766;9.176;2022-12-11T01:50:35;23.38;;;16.13;;
49610;SDS011;35515;48.766;9.176;2022-12-11T01:53:07;22.23;;;15.23;;
49610;SDS011;35515;48.766;9.176;2022-12-11T01:55:37;26.90;;;16.95;;
49610;SDS011;35515;48.766;9.176;2022-12-11T01:58:05;25.80;;;15.48;;
49610;SDS011;35515;48.766;9.176;2022-12-11T02:00:33;24.65;;;16.90;;
49610;SDS011;35515;48.766;9.176;2022-12-11T02:02:59;23.10;;;15.13;;
49610;SDS011;35515;48.766;9.176;2022-12-11T02:05:26;22.35;;;15.80;;
49610;SDS011;35515;48.766;9.176;2022-12-11T02:07:53;25.50;;;15.88;;
49610;SDS011;35515;48.766;9.176;2022-12-11T02:10:23;23.02;;;16.15;;
49610;SDS011;35515;48.766;9.176;2022-12-11T02:12:58;21.95;;;14.70;;
49610;SDS011;35515;48.766;9.176;2022-12-11T02:15:30;22.45;;;15.40;;
49610;SDS011;35515;48.766;9.176;2022-12-11T02:18:04;25.10;;;15.90;;
49610;SDS011;35515;48.766;9.176;2022-12-11T02:20:40;23.33;;;15.65;;
49610;SDS011;35515;48.766;9.176;2022-12-11T02:23:18;21.88;;;15.32;;
49610;SDS011;35515;48.766;9.176;2022-12-11T02:26:00;25.23;;;16.02;;
49610;SDS011;35515;48.766;9.176;2022-12-11T02:28:39;22.92;;;15.40;;
49610;SDS011;35515;48.766;9.176;2022-12-11T02:31:11;21.98;;;14.93;;
49610;SDS011;35515;48.766;9.176;2022-12-11T02:33:42;24.67;;;15.38;;
49610;SDS011;35515;48.766;9.176;2022-12-11T02:36:13;21.50;;;15.38;;
49610;SDS011;35515;48.766;9.176;2022-12-11T02:38:43;22.17;;;14.95;;
49610;SDS011;35515;48.766;9.176;2022-12-11T02:41:14;22.67;;;14.52;;
49610;SDS011;35515;48.766;9.176;2022-12-11T02:43:44;20.88;;;14.30;;
49610;SDS011;35515;48.766;9.176;2022-12-11T02:46:13;19.20;;;13.63;;
49610;SDS011;35515;48.766;9.176;2022-12-11T02:48:42;22.25;;;15.13;;
49610;SDS011;35515;48.766;9.176;2022-12-11T02:51:10;21.70;;;14.55;;
49610;SDS011;35515;48.766;9.176;2022-12-11T02:53:40;23.17;;;14.48;;
49610;SDS011;35515;48.766;9.176;2022-12-11T02:56:09;20.77;;;14.40;;
49610;SDS011;35515;48.766;9.176;2022-12-11T02:58:38;23.63;;;14.38;;
49610;SDS011;35515;48.766;9.176;2022-12-11T03:01:12;24.58;;;14.95;;
49610;SDS011;35515;48.766;9.176;2022-12-11T03:03:39;19.65;;;13.80;;
49610;SDS011;35515;48.766;9.176;2022-12-11T03:06:05;22.98;;;15.18;;
49610;SDS011;35515;48.766;9.176;2022-12-11T03:08:34;22.77;;;14.95;;
49610;SDS011;35515;48.766;9.176;2022-12-11T03:11:01;21.17;;;13.35;;
49610;SDS011;35515;48.766;9.176;2022-12-11T03:13:27;22.38;;;14.43;;
49610;SDS011;35515;48.766;9.176;2022-12-11T03:15:58;22.17;;;14.23;;
49610;SDS011;35515;48.766;9.176;2022-12-11T03:18:38;19.55;;;12.45;;
49610;SDS011;35515;48.766;9.176;2022-12-11T03:21:09;21.63;;;14.02;;
49610;SDS011;35515;48.766;9.176;2022-12-11T03:23:46;20.33;;;13.30;;
49610;SDS011;35515;48.766;9.176;2022-12-11T03:26:16;18.17;;;12.60;;
49610;SDS011;35515;48.766;9.176;2022-12-11T03:28:46;20.58;;;13.90;;
49610;SDS011;35515;48.766;9.176;2022-12-11T03:31:21;20.13;;;13.48;;
49610;SDS011;35515;48.766;9.176;2022-12-11T03:33:55;21.30;;;15.20;;
49610;SDS011;35515;48.766;9.176;2022-12-11T03:36:29;19.90;;;13.85;;
49610;SDS011;35515;48.766;9.176;2022-12-11T03:38:58;21.08;;;14.13;;
49610;SDS011;35515;48.766;9.176;2022-12-11T03:41:28;18.88;;;13.60;;
49610;SDS011;35515;48.766;9.176;2022-12-11T03:43:59;21.65;;;14.70;;
49610;SDS011;35515;48.766;9.176;2022-12-11T03:46:26;19.55;;;13.02;;
49610;SDS011;35515;48.766;9.176;2022-12-11T03:49:00;18.27;;;13.13;;
49610;SDS011;35515;48.766;9.176;2022-12-11T03:51:29;19.65;;;14.07;;
49610;SDS011;35515;48.766;9.176;2022-12-11T03:53:59;21.27;;;12.77;;
49610;SDS011;35515;48.766;9.176;2022-12-11T03:56:26;21.50;;;14.48;;
49610;SDS011;35515;48.766;9.176;2022-12-11T03:58:55;23.45;;;13.90;;
49610;SDS011;35515;48.766;9.176;2022-12-11T04:01:22;18.67;;;12.00;;
49610;SDS011;35515;48.766;9.176;2022-12-11T04:03:49;16.55;;;12.05;;
49610;SDS011;35515;48.766;9.176;2022-12-11T04:06:16;18.45;;;13.32;;
49610;SDS011;35515;48.766;9.176;2022-12-11T04:08:43;16.73;;;12.18;;
49610;SDS011;35515;48.766;9.176;2022-12-11T04:11:09;19.45;;;13.18;;
49610;SDS011;35515;48.766;9.176;2022-12-11T04:13:54;19.90;;;12.43;;
49610;SDS011;35515;48.766;9.176;2022-12-11T04:16:34;17.15;;;11.77;;
49610;SDS011;35515;48.766;9.176;2022-12-11T04:19:01;18.73;;;12.48;;
49610;SDS011;35515;48.766;9.176;2022-12-11T04:21:46;19.20;;;13.10;;
49610;SDS011;35515;48.766;9.176;2022-12-11T04:24:31;21.05;;;13.40;;
49610;SDS011;35515;48.766;9.176;2022-12-11T04:26:57;19.15;;;11.82;;
49610;SDS011;35515;48.766;9.176;2022-12-11T04:29:24;17.30;;;12.07;;
49610;SDS011;35515;48.766;9.176;2022-12-11T04:31:50;17.10;;;12.57;;
49610;SDS011;35515;48.766;9.176;2022-12-11T04:34:17;18.20;;;11.70;;
49610;SDS011;35515;48.766;9.176;2022-12-11T04:36:44;16.88;;;11.98;;
49610;SDS011;35515;48.766;9.176;2022-12-11T04:39:12;18.38;;;11.80;;
49610;SDS011;35515;48.766;9.176;2022-12-11T04:41:39;16.13;;;10.77;;
49610;SDS011;35515;48.766;9.176;2022-12-11T04:44:06;17.42;;;11.43;;
49610;SDS011;35515;48.766;9.176;2022-12-11T04:46:32;17.40;;;11.18;;
49610;SDS011;35515;48.766;9.176;2022-12-11T04:48:59;20.23;;;11.27;;
49610;SDS011;35515;48.766;9.176;2022-12-11T04:51:26;19.80;;;12.32;;
49610;SDS011;35515;48.766;9.176;2022-12-11T04:53:53;17.75;;;10.85;;
49610;SDS011;35515;48.766;9.176;2022-12-11T04:56:21;17.77;;;11.32;;
49610;SDS011;35515;48.766;9.176;2022-12-11T04:58:48;17.10;;;11.80;;
49610;SDS011;35515;48.766;9.176;2022-12-11T05:01:15;14.35;;;10.95;;
49610;SDS011;35515;48.766;9.176;2022-12-11T05:03:44;19.13;;;12.05;;
49610;SDS011;35515;48.766;9.176;2022-12-11T05:06:10;16.40;;;11.13;;
49610;SDS011;35515;48.766;9.176;2022-12-11T05:08:38;16.83;;;11.70;;
49610;SDS011;35515;48.766;9.176;2022-12-11T05:11:06;18.75;;;11.50;;
49610;SDS011;35515;48.766;9.176;2022-12-11T05:13:36;17.58;;;11.90;;
49610;SDS011;35515;48.766;9.176;2022-12-11T05:16:03;16.67;;;10.73;;
49610;SDS011;35515;48.766;9.176;2022-12-11T05:18:30;17.05;;;10.52;;
49610;SDS011;35515;48.766;9.176;2022-12-11T05:20:57;16.58;;;11.48;;
49610;SDS011;35515;48.766;9.176;2022-12-11T05:23:25;14.45;;;11.00;;
49610;SDS011;35515;48.766;9.176;2022-12-11T05:25:52;18.23;;;11.38;;
49610;SDS011;35515;48.766;9.176;2022-12-11T05:28:19;17.27;;;11.48;;
49610;SDS011;35515;48.766;9.176;2022-12-11T05:30:48;15.90;;;10.82;;
49610;SDS011;35515;48.766;9.176;2022-12-11T05:33:19;19.67;;;12.88;;
49610;SDS011;35515;48.766;9.176;2022-12-11T05:35:46;17.40;;;11.82;;
49610;SDS011;35515;48.766;9.176;2022-12-11T05:38:13;15.70;;;10.90;;
49610;SDS011;35515;48.766;9.176;2022-12-11T05:40:40;17.35;;;11.38;;
49610;SDS011;35515;48.766;9.176;2022-12-11T05:43:06;17.35;;;12.18;;
49610;SDS011;35515;48.766;9.176;2022-12-11T05:45:33;19.98;;;12.18;;
49610;SDS011;35515;48.766;9.176;2022-12-11T05:48:01;20.30;;;12.48;;
49610;SDS011;35515;48.766;9.176;2022-12-11T05:50:28;19.80;;;13.68;;
49610;SDS011;35515;48.766;9.176;2022-12-11T05:52:54;19.23;;;11.73;;
49610;SDS011;35515;48.766;9.176;2022-12-11T05:55:21;19.25;;;12.95;;
49610;SDS011;35515;48.766;9.176;2022-12-11T05:57:47;19.60;;;13.25;;
49610;SDS011;35515;48.766;9.176;2022-12-11T06:00:14;19.45;;;12.52;;
49610;SDS011;35515;48.766;9.176;2022-12-11T06:02:40;17.15;;;12.68;;
49610;SDS011;35515;48.766;9.176;2022-12-11T06:05:08;19.48;;;13.32;;
49610;SDS011;35515;48.766;9.176;2022-12-11T06:07:35;20.88;;;12.38;;
49610;SDS011;35515;48.766;9.176;2022-12-11T06:10:01;19.88;;;13.32;;
49610;SDS011;35515;48.766;9.176;2022-12-11T06:12:28;19.73;;;13.00;;
49610;SDS011;35515;48.766;9.176;2022-12-11T06:14:55;17.83;;;12.00;;
49610;SDS011;35515;48.766;9.176;2022-12-11T06:17:21;18.83;;;12.10;;
49610;SDS011;35515;48.766;9.176;2022-12-11T06:19:48;22.33;;;12.57;;
49610;SDS011;35515;48.766;9.176;2022-12-11T06:22:16;22.58;;;14.05;;
49610;SDS011;35515;48.766;9.176;2022-12-11T06:24:42;20.40;;;14.15;;
49610;SDS011;35515;48.766;9.176;2022-12-11T06:27:09;20.77;;;14.07;;
49610;SDS011;35515;48.766;9.176;2022-12-11T06:29:35;21.65;;;15.23;;
49610;SDS011;35515;48.766;9.176;2022-12-11T06:32:02;26.63;;;17.27;;
49610;SDS011;35515;48.766;9.176;2022-12-11T06:34:28;24.33;;;15.80;;
49610;SDS011;35515;48.766;9.176;2022-12-11T06:36:55;24.67;;;16.13;;
49610;SDS011;35515;48.766;9.176;2022-12-11T06:39:22;23.17;;;15.80;;
49610;SDS011;35515;48.766;9.176;2022-12-11T06:41:49;20.58;;;14.27;;
49610;SDS011;35515;48.766;9.176;2022-12-11T06:44:15;23.83;;;14.73;;
49610;SDS011;35515;48.766;9.176;2022-12-11T06:46:42;23.27;;;14.85;;
49610;SDS011;35515;48.766;9.176;2022-12-11T06:49:08;23.25;;;15.35;;
49610;SDS011;35515;48.766;9.176;2022-12-11T06:51:35;22.88;;;15.15;;
49610;SDS011;35515;48.766;9.176;2022-12-11T06:54:02;23.23;;;15.02;;
49610;SDS011;35515;48.766;9.176;2022-12-11T06:56:29;19.00;;;13.13;;
49610;SDS011;35515;48.766;9.176;2022-12-11T06:58:56;21.58;;;14.68;;
49610;SDS011;35515;48.766;9.176;2022-12-11T07:01:23;26.73;;;16.30;;
49610;SDS011;35515;48.766;9.176;2022-12-11T07:03:51;21.15;;;14.82;;
49610;SDS011;35515;48.766;9.176;2022-12-11T07:06:17;22.45;;;14.93;;
49610;SDS011;35515;48.766;9.176;2022-12-11T07:08:44;24.50;;;15.43;;
49610;SDS011;35515;48.766;9.176;2022-12-11T07:11:11;23.30;;;15.85;;
49610;SDS011;35515;48.766;9.176;2022-12-11T07:13:41;23.02;;;15.63;;
49610;SDS011;35515;48.766;9.176;2022-12-11T07:16:09;24.63;;;14.70;;
49610;SDS011;35515;48.766;9.176;2022-12-11T07:18:36;22.65;;;14.48;;
49610;SDS011;35515;48.766;9.176;2022-12-11T07:21:03;20.48;;;13.82;;
49610;SDS011;35515;48.766;9.176;2022-12-11T07:23:30;21.70;;;13.63;;
49610;SDS011;35515;48.766;9.176;2022-12-11T07:25:57;21.17;;;13.77;;
49610;SDS011;35515;48.766;9.176;2022-12-11T07:28:23;24.45;;;14.25;;
49610;SDS011;35515;48.766;9.176;2022-12-11T07:30:52;21.08;;;14.32;;
49610;SDS011;35515;48.766;9.176;2022-12-11T07:33:18;23.02;;;14.32;;
49610;SDS011;35515;48.766;9.176;2022-12-11T07:35:45;24.25;;;15.02;;
49610;SDS011;35515;48.766;9.176;2022-12-11T07:38:12;23.88;;;13.93;;
49610;SDS011;35515;48.766;9.176;2022-12-11T07:40:38;22.00;;;13.93;;
49610;SDS011;35515;48.766;9.176;2022-12-11T07:43:05;22.77;;;15.20;;
49610;SDS011;35515;48.766;9.176;2022-12-11T07:45:32;21.17;;;13.90;;
49610;SDS011;35515;48.766;9.176;2022-12-11T07:47:59;19.17;;;13.50;;
49610;SDS011;35515;48.766;9.176;2022-12-11T07:50:26;21.23;;;13.25;;
49610;SDS011;35515;48.766;9.176;2022-12-11T07:52:52;23.23;;;15.05;;
49610;SDS011;35515;48.766;9.176;2022-12-11T07:55:19;23.70;;;14.70;;
49610;SDS011;35515;48.766;9.176;2022-12-11T07:57:45;23.02;;;14.20;;
49610;SDS011;35515;48.766;9.176;2022-12-11T08:00:12;22.23;;;14.23;;
49610;SDS011;35515;48.766;9.176;2022-12-11T08:02:39;22.35;;;14.82;;
49610;SDS011;35515;48.766;9.176;2022-12-11T08:05:07;24.67;;;15.93;;
49610;SDS011;35515;48.766;9.176;2022-12-11T08:07:34;23.88;;;15.35;;
49610;SDS011;35515;48.766;9.176;2022-12-11T08:10:01;24.90;;;16.42;;
49610;SDS011;35515;48.766;9.176;2022-12-11T08:12:28;22.80;;;15.40;;
49610;SDS011;35515;48.766;9.176;2022-12-11T08:14:55;24.75;;;16.38;;
49610;SDS011;35515;48.766;9.176;2022-12-11T08:17:21;25.00;;;16.08;;
49610;SDS011;35515;48.766;9.176;2022-12-11T08:19:48;25.80;;;16.13;;
49610;SDS011;35515;48.766;9.176;2022-12-11T08:22:16;25.27;;;16.60;;
49610;SDS011;35515;48.766;9.176;2022-12-11T08:24:42;25.08;;;16.38;;
49610;SDS011;35515;48.766;9.176;2022-12-11T08:27:09;24.23;;;15.32;;
49610;SDS011;35515;48.766;9.176;2022-12-11T08:29:35;23.50;;;14.35;;
49610;SDS011;35515;48.766;9.176;2022-12-11T08:32:02;21.90;;;15.32;;
49610;SDS011;35515;48.766;9.176;2022-12-11T08:34:29;24.38;;;15.50;;
49610;SDS011;35515;48.766;9.176;2022-12-11T08:36:55;22.05;;;14.00;;
49610;SDS011;35515;48.766;9.176;2022-12-11T08:39:23;20.50;;;14.38;;
49610;SDS011;35515;48.766;9.176;2022-12-11T08:41:50;21.17;;;15.00;;
49610;SDS011;35515;48.766;9.176;2022-12-11T08:44:17;25.08;;;14.68;;
49610;SDS011;35515;48.766;9.176;2022-12-11T08:46:44;22.00;;;14.57;;
49610;SDS011;35515;48.766;9.176;2022-12-11T08:49:11;23.90;;;14.38;;
49610;SDS011;35515;48.766;9.176;2022-12-11T08:51:37;23.15;;;15.02;;
49610;SDS011;35515;48.766;9.176;2022-12-11T08:54:04;21.27;;;14.30;;
49610;SDS011;35515;48.766;9.176;2022-12-11T08:56:31;23.33;;;15.23;;
49610;SDS011;35515;48.766;9.176;2022-12-11T08:58:58;24.83;;;15.27;;
49610;SDS011;35515;48.766;9.176;2022-12-11T09:01:26;25.25;;;16.13;;
49610;SDS011;35515;48.766;9.176;2022-12-11T09:03:53;21.90;;;14.10;;
49610;SDS011;35515;48.766;9.176;2022-12-11T09:06:21;22.23;;;13.93;;
49610;SDS011;35515;48.766;9.176;2022-12-11T09:08:49;23.33;;;14.88;;
49610;SDS011;35515;48.766;9.176;2022-12-11T09:11:17;22.83;;;15.38;;
49610;SDS011;35515;48.766;9.176;2022-12-11T09:13:46;20.73;;;13.90;;
49610;SDS011;35515;48.766;9.176;2022-12-11T09:16:14;19.20;;;13.23;;
49610;SDS011;35515;48.766;9.176;2022-12-11T09:18:43;25.23;;;15.32;;
49610;SDS011;35515;48.766;9.176;2022-12-11T09:21:12;19.88;;;13.82;;
49610;SDS011;35515;48.766;9.176;2022-12-11T09:23:43;22.70;;;15.55;;
49610;SDS011;35515;48.766;9.176;2022-12-11T09:26:10;23.50;;;15.45;;
49610;SDS011;35515;48.766;9.176;2022-12-11T09:28:38;21.20;;;14.00;;
49610;SDS011;35515;48.766;9.176;2022-12-11T09:31:08;21.90;;;14.70;;
49610;SDS011;35515;48.766;9.176;2022-12-11T09:33:37;22.13;;;12.82;;
49610;SDS011;35515;48.766;9.176;2022-12-11T09:36:04;23.25;;;13.50;;
49610;SDS011;35515;48.766;9.176;2022-12-11T09:38:32;24.40;;;14.77;;
49610;SDS011;35515;48.766;9.176;2022-12-11T09:41:00;25.25;;;15.43;;
49610;SDS011;35515;48.766;9.176;2022-12-11T09:43:30;24.35;;;14.40;;
49610;SDS011;35515;48.766;9.176;2022-12-11T09:46:04;20.05;;;13.65;;
49610;SDS011;35515;48.766;9.176;2022-12-11T09:48:34;20.13;;;13.15;;
49610;SDS011;35515;48.766;9.176;2022-12-11T09:51:04;21.35;;;13.70;;
49610;SDS011;35515;48.766;9.176;2022-12-11T09:53:37;21.20;;;13.48;;
49610;SDS011;35515;48.766;9.176;2022-12-11T09:56:05;22.15;;;13.43;;
49610;SDS011;35515;48.766;9.176;2022-12-11T09:58:44;21.52;;;14.40;;
49610;SDS011;35515;48.766;9.176;2022-12-11T10:01:25;22.67;;;14.45;;
49610;SDS011;35515;48.766;9.176;2022-12-11T10:04:08;22.13;;;14.93;;
49610;SDS011;35515;48.766;9.176;2022-12-11T10:06:47;21.65;;;14.25;;
49610;SDS011;35515;48.766;9.176;2022-12-11T10:09:29;22.55;;;14.55;;
49610;SDS011;35515;48.766;9.176;2022-12-11T10:12:07;23.27;;;14.50;;
49610;SDS011;35515;48.766;9.176;2022-12-11T10:14:46;21.63;;;14.60;;
49610;SDS011;35515;48.766;9.176;2022-12-11T10:17:26;20.70;;;14.20;;
49610;SDS011;35515;48.766;9.176;2022-12-11T10:19:59;21.65;;;14.15;;
49610;SDS011;35515;48.766;9.176;2022-12-11T10:22:31;24.10;;;15.40;;
49610;SDS011;35515;48.766;9.176;2022-12-11T10:24:59;19.20;;;13.80;;
49610;SDS011;35515;48.766;9.176;2022-12-11T10:27:28;19.63;;;12.52;;
49610;SDS011;35515;48.766;9.176;2022-12-11T10:29:59;22.20;;;14.15;;
49610;SDS011;35515;48.766;9.176;2022-12-11T10:32:42;22.75;;;13.77;;
49610;SDS011;35515;48.766;9.176;2022-12-11T10:35:19;22.85;;;13.93;;
49610;SDS011;35515;48.766;9.176;2022-12-11T10:37:54;22.80;;;12.82;;
49610;SDS011;35515;48.766;9.176;2022-12-11T10:40:23;21.73;;;13.57;;
49610;SDS011;35515;48.766;9.176;2022-12-11T10:42:51;25.42;;;14.60;;
49610;SDS011;35515;48.766;9.176;2022-12-11T10:45:18;23.48;;;13.90;;
49610;SDS011;35515;48.766;9.176;2022-12-11T10:47:45;23.55;;;14.20;;
49610;SDS011;35515;48.766;9.176;2022-12-11T10:50:22;20.92;;;13.68;;
49610;SDS011;35515;48.766;9.176;2022-12-11T10:52:50;23.40;;;14.93;;
49610;SDS011;35515;48.766;9.176;2022-12-11T10:55:18;22.15;;;13.27;;
49610;SDS011;35515;48.766;9.176;2022-12-11T10:57:52;24.35;;;13.73;;
49610;SDS011;35515;48.766;9.176;2022-12-11T11:00:32;23.55;;;13.10;;
49610;SDS011;35515;48.766;9.176;2022-12-11T11:03:01;20.70;;;13.52;;
49610;SDS011;35515;48.766;9.176;2022-12-11T11:05:31;22.88;;;13.70;;
49610;SDS011;35515;48.766;9.176;2022-12-11T11:08:07;25.27;;;16.00;;
49610;SDS011;35515;48.766;9.176;2022-12-11T11:10:48;21.58;;;14.85;;
49610;SDS011;35515;48.766;9.176;2022-12-11T11:13:16;27.02;;;15.57;;
49610;SDS011;35515;48.766;9.176;2022-12-11T11:15:42;24.88;;;16.33;;
49610;SDS011;35515;48.766;9.176;2022-12-11T11:18:10;24.38;;;16.13;;
49610;SDS011;35515;48.766;9.176;2022-12-11T11:20:52;29.25;;;16.65;;
49610;SDS011;35515;48.766;9.176;2022-12-11T11:23:19;27.70;;;16.55;;
49610;SDS011;35515;48.766;9.176;2022-12-11T11:25:48;27.00;;;16.42;;
49610;SDS011;35515;48.766;9.176;2022-12-11T11:28:16;26.83;;;16.25;;
49610;SDS011;35515;48.766;9.176;2022-12-11T11:30:53;28.35;;;18.45;;
49610;SDS011;35515;48.766;9.176;2022-12-11T11:33:22;25.15;;;16.65;;
49610;SDS011;35515;48.766;9.176;2022-12-11T11:35:50;24.77;;;15.70;;
49610;SDS011;35515;48.766;9.176;2022-12-11T11:38:21;23.65;;;15.80;;
49610;SDS011;35515;48.766;9.176;2022-12-11T11:40:51;23.50;;;14.57;;
49610;SDS011;35515;48.766;9.176;2022-12-11T11:43:24;24.83;;;15.23;;
49610;SDS011;35515;48.766;9.176;2022-12-11T11:46:00;28.83;;;17.20;;
49610;SDS011;35515;48.766;9.176;2022-12-11T11:51:05;28.80;;;18.50;;
49610;SDS011;35515;48.766;9.176;2022-12-11T11:53:39;27.30;;;18.10;;
49610;SDS011;35515;48.766;9.176;2022-12-11T11:56:16;31.47;;;17.93;;
49610;SDS011;35515;48.766;9.176;2022-12-11T11:58:49;27.80;;;17.45;;
49610;SDS011;35515;48.766;9.176;2022-12-11T12:01:23;35.38;;;19.80;;
49610;SDS011;35515;48.766;9.176;2022-12-11T12:03:50;26.67;;;16.98;;
49610;SDS011;35515;48.766;9.176;2022-12-11T12:06:21;31.08;;;18.40;;
49610;SDS011;35515;48.766;9.176;2022-12-11T12:09:07;28.98;;;17.05;;
49610;SDS011;35515;48.766;9.176;2022-12-11T12:11:44;26.98;;;17.05;;
49610;SDS011;35515;48.766;9.176;2022-12-11T12:14:17;26.23;;;17.67;;
49610;SDS011;35515;48.766;9.176;2022-12-11T12:16:52;31.00;;;19.95;;
49610;SDS011;35515;48.766;9.176;2022-12-11T12:19:35;53.85;;;32.55;;
49610;SDS011;35515;48.766;9.176;2022-12-11T12:22:22;35.28;;;20.88;;
49610;SDS011;35515;48.766;9.176;2022-12-11T12:25:05;28.38;;;17.67;;
49610;SDS011;35515;48.766;9.176;2022-12-11T12:27:42;28.40;;;17.83;;
49610;SDS011;35515;48.766;9.176;2022-12-11T12:30:16;30.23;;;19.42;;
49610;SDS011;35515;48.766;9.176;2022-12-11T12:32:46;28.02;;;18.70;;
49610;SDS011;35515;48.766;9.176;2022-12-11T12:35:29;28.05;;;18.42;;
49610;SDS011;35515;48.766;9.176;2022-12-11T12:38:03;29.60;;;17.60;;
49610;SDS011;35515;48.766;9.176;2022-12-11T12:40:36;33.05;;;19.20;;
49610;SDS011;35515;48.766;9.176;2022-12-11T12:43:25;31.38;;;19.00;;
49610;SDS011;35515;48.766;9.176;2022-12-11T12:46:05;38.10;;;21.13;;
49610;SDS011;35515;48.766;9.176;2022-12-11T12:48:42;38.47;;;21.77;;
49610;SDS011;35515;48.766;9.176;2022-12-11T12:51:11;31.95;;;19.42;;
49610;SDS011;35515;48.766;9.176;2022-12-11T12:53:40;28.75;;;16.75;;
49610;SDS011;35515;48.766;9.176;2022-12-11T12:56:11;29.88;;;18.98;;
49610;SDS011;35515;48.766;9.176;2022-12-11T12:58:40;28.15;;;18.48;;
49610;SDS011;35515;48.766;9.176;2022-12-11T13:01:09;31.83;;;20.13;;
49610;SDS011;35515;48.766;9.176;2022-12-11T13:03:48;30.45;;;18.45;;
49610;SDS011;35515;48.766;9.176;2022-12-11T13:06:26;26.70;;;19.42;;
49610;SDS011;35515;48.766;9.176;2022-12-11T13:08:56;34.10;;;19.85;;
49610;SDS011;35515;48.766;9.176;2022-12-11T13:11:29;32.55;;;21.73;;
49610;SDS011;35515;48.766;9.176;2022-12-11T13:14:01;28.15;;;18.10;;
49610;SDS011;35515;48.766;9.176;2022-12-11T13:19:01;30.08;;;18.65;;
49610;SDS011;35515;48.766;9.176;2022-12-11T13:21:29;30.60;;;19.02;;
49610;SDS011;35515;48.766;9.176;2022-12-11T13:24:14;29.83;;;18.50;;
49610;SDS011;35515;48.766;9.176;2022-12-11T13:26:42;30.05;;;19.20;;
49610;SDS011;35515;48.766;9.176;2022-12-11T13:31:55;25.90;;;16.77;;
49610;SDS011;35515;48.766;9.176;2022-12-11T13:34:23;30.48;;;19.08;;
49610;SDS011;35515;48.766;9.176;2022-12-11T13:36:55;30.05;;;18.23;;
49610;SDS011;35515;48.766;9.176;2022-12-11T13:39:24;28.60;;;18.38;;
49610;SDS011;35515;48.766;9.176;2022-12-11T13:41:52;27.88;;;16.30;;
49610;SDS011;35515;48.766;9.176;2022-12-11T13:44:24;28.03;;;18.87;;
49610;SDS011;35515;48.766;9.176;2022-12-11T13:46:52;26.63;;;16.55;;
49610;SDS011;35515;48.766;9.176;2022-12-11T13:49:23;31.20;;;19.23;;
49610;SDS011;35515;48.766;9.176;2022-12-11T13:51:51;27.48;;;17.60;;
49610;SDS011;35515;48.766;9.176;2022-12-11T13:54:19;25.92;;;16.70;;
49610;SDS011;35515;48.766;9.176;2022-12-11T13:56:58;26.55;;;16.67;;
49610;SDS011;35515;48.766;9.176;2022-12-11T13:59:28;29.00;;;18.92;;
49610;SDS011;35515;48.766;9.176;2022-12-11T14:01:58;31.90;;;19.25;;
49610;SDS011;35515;48.766;9.176;2022-12-11T14:06:56;31.75;;;20.77;;
49610;SDS011;35515;48.766;9.176;2022-12-11T14:09:24;35.13;;;19.98;;
49610;SDS011;35515;48.766;9.176;2022-12-11T14:11:52;31.48;;;18.55;;
49610;SDS011;35515;48.766;9.176;2022-12-11T14:14:26;31.52;;;19.63;;
49610;SDS011;35515;48.766;9.176;2022-12-11T14:16:59;33.45;;;19.98;;
49610;SDS011;35515;48.766;9.176;2022-12-11T14:19:26;36.53;;;20.05;;
49610;SDS011;35515;48.766;9.176;2022-12-11T14:21:54;33.58;;;21.77;;
49610;SDS011;35515;48.766;9.176;2022-12-11T14:24:21;33.72;;;20.85;;
49610;SDS011;35515;48.766;9.176;2022-12-11T14:26:49;34.80;;;21.17;;
49610;SDS011;35515;48.766;9.176;2022-12-11T14:29:22;35.65;;;20.30;;
49610;SDS011;35515;48.766;9.176;2022-12-11T14:31:54;34.22;;;20.75;;
49610;SDS011;35515;48.766;9.176;2022-12-11T14:34:24;29.90;;;19.10;;
49610;SDS011;35515;48.766;9.176;2022-12-11T14:36:53;38.00;;;21.35;;
49610;SDS011;35515;48.766;9.176;2022-12-11T14:39:21;31.95;;;19.75;;
49610;SDS011;35515;48.766;9.176;2022-12-11T14:41:55;36.95;;;20.67;;
49610;SDS011;35515;48.766;9.176;2022-12-11T14:44:27;33.45;;;20.48;;
49610;SDS011;35515;48.766;9.176;2022-12-11T14:46:56;33.50;;;20.45;;